sensor_id;sensor_type;location;lat;lon;timestamp;pressure;altitude;pressure_sealevel;temperature;humidity
15405;BME280;7801;48.124;11.590;2023-01-27T00:01:14;95430.66;;;1.13;91.29
15405;BME280;7801;48.124;11.590;2023-01-27T00:03:40;95436.13;;;0.99;92.44
15405;BME280;7801;48.124;11.590;2023-01-27T00:06:06;95438.47;;;1.24;91.96
15405;BME280;7801;48.124;11.590;2023-01-27T00:08:37;95427.22;;;1.24;91.42
15405;BME280;7801;48.124;11.590;2023-01-27T00:11:03;95432.31;;;1.30;90.76
15405;BME280;7801;48.124;11.590;2023-01-27T00:13:48;95431.91;;;1.10;91.57
15405;BME280;7801;48.124;11.590;2023-01-27T00:16:15;95437.91;;;1.22;91.90
15405;BME280;7801;48.124;11.590;2023-01-27T00:18:42;95435.16;;;1.29;91.45
15405;BME280;7801;48.124;11.590;2023-01-27T00:21:08;95430.63;;;1.53;90.33
15405;BME280;7801;48.124;11.590;2023-01-27T00:23:53;95434.72;;;1.49;90.30
15405;BME280;7801;48.124;11.590;2023-01-27T00:26:38;95423.44;;;1.60;89.40
15405;BME280;7801;48.124;11.590;2023-01-27T00:29:04;95425.69;;;1.40;90.44
15405;BME280;7801;48.124;11.590;2023-01-27T00:31:31;95426.66;;;1.50;91.03
15405;BME280;7801;48.124;11.590;2023-01-27T00:34:14;95417.28;;;1.37;92.11
15405;BME280;7801;48.124;11.590;2023-01-27T00:36:40;95422.28;;;1.39;91.89
15405;BME280;7801;48.124;11.590;2023-01-27T00:39:07;95423.69;;;1.58;91.69
15405;BME280;7801;48.124;11.590;2023-01-27T00:41:33;95419.66;;;1.39;91.87
15405;BME280;7801;48.124;11.590;2023-01-27T00:43:59;95415.69;;;1.36;92.56
15405;BME280;7801;48.124;11.590;2023-01-27T00:46:25;95410.94;;;1.62;92.47
15405;BME280;7801;48.124;11.590;2023-01-27T00:48:51;95406.91;;;1.88;91.15
15405;BME280;7801;48.124;11.590;2023-01-27T00:51:17;95409.47;;;1.83;90.36
15405;BME280;7801;48.124;11.590;2023-01-27T00:53:42;95418.22;;;1.60;90.83
15405;BME280;7801;48.124;11.590;2023-01-27T00:56:08;95418.50;;;1.47;91.32
15405;BME280;7801;48.124;11.590;2023-01-27T00:58:33;95429.47;;;1.32;92.18
15405;BME280;7801;48.124;11.590;2023-01-27T01:01:00;95420.47;;;1.40;91.56
15405;BME280;7801;48.124;11.590;2023-01-27T01:03:29;95431.09;;;1.50;91.47
15405;BME280;7801;48.124;11.590;2023-01-27T01:05:59;95425.03;;;1.32;91.34
15405;BME280;7801;48.124;11.590;2023-01-27T01:08:25;95427.06;;;1.30;91.76
15405;BME280;7801;48.124;11.590;2023-01-27T01:10:50;95435.69;;;1.43;91.49
15405;BME280;7801;48.124;11.590;2023-01-27T01:13:16;95437.28;;;1.44;91.48
15405;BME280;7801;48.124;11.590;2023-01-27T01:15:43;95438.75;;;1.40;90.34
15405;BME280;7801;48.124;11.590;2023-01-27T01:18:09;95442.41;;;1.38;90.13
15405;BME280;7801;48.124;11.590;2023-01-27T01:20:36;95442.84;;;1.35;90.67
15405;BME280;7801;48.124;11.590;2023-01-27T01:23:02;95443.53;;;1.43;89.91
15405;BME280;7801;48.124;11.590;2023-01-27T01:25:28;95440.91;;;1.43;88.78
15405;BME280;7801;48.124;11.590;2023-01-27T01:27:53;95445.59;;;1.29;89.03
15405;BME280;7801;48.124;11.590;2023-01-27T01:30:21;95439.06;;;1.15;89.56
15405;BME280;7801;48.124;11.590;2023-01-27T01:32:51;95440.88;;;1.14;90.10
15405;BME280;7801;48.124;11.590;2023-01-27T01:35:16;95449.63;;;1.08;90.58
15405;BME280;7801;48.124;11.590;2023-01-27T01:37:42;95440.53;;;1.22;90.33
15405;BME280;7801;48.124;11.590;2023-01-27T01:40:09;95439.59;;;1.57;88.02
15405;BME280;7801;48.124;11.590;2023-01-27T01:48:21;95438.53;;;1.41;86.19
15405;BME280;7801;48.124;11.590;2023-01-27T01:50:57;95434.56;;;1.38;86.62
15405;BME280;7801;48.124;11.590;2023-01-27T01:53:28;95425.50;;;1.29;87.46
15405;BME280;7801;48.124;11.590;2023-01-27T01:56:00;95407.81;;;1.48;86.68
15405;BME280;7801;48.124;11.590;2023-01-27T01:58:27;95405.37;;;1.58;85.87
15405;BME280;7801;48.124;11.590;2023-01-27T02:00:53;95404.41;;;1.48;85.98
15405;BME280;7801;48.124;11.590;2023-01-27T02:03:21;95401.31;;;1.51;86.54
15405;BME280;7801;48.124;11.590;2023-01-27T02:05:47;95391.31;;;1.48;86.43
15405;BME280;7801;48.124;11.590;2023-01-27T02:08:24;95403.78;;;1.57;86.58
15405;BME280;7801;48.124;11.590;2023-01-27T02:10:52;95418.13;;;1.55;86.51
15405;BME280;7801;48.124;11.590;2023-01-27T02:13:19;95415.97;;;1.52;86.36
15405;BME280;7801;48.124;11.590;2023-01-27T02:15:45;95416.22;;;1.50;87.22
15405;BME280;7801;48.124;11.590;2023-01-27T02:18:11;95414.75;;;1.71;86.98
15405;BME280;7801;48.124;11.590;2023-01-27T02:20:41;95408.78;;;1.59;87.12
15405;BME280;7801;48.124;11.590;2023-01-27T02:26:18;95417.09;;;1.56;87.42
15405;BME280;7801;48.124;11.590;2023-01-27T02:28:35;95412.16;;;1.88;85.78
15405;BME280;7801;48.124;11.590;2023-01-27T02:31:01;95411.91;;;1.72;85.85
15405;BME280;7801;48.124;11.590;2023-01-27T02:33:26;95411.53;;;1.81;84.89
15405;BME280;7801;48.124;11.590;2023-01-27T02:36:14;95420.63;;;1.78;85.15
15405;BME280;7801;48.124;11.590;2023-01-27T02:38:49;95421.41;;;1.62;86.59
15405;BME280;7801;48.124;11.590;2023-01-27T02:41:35;95416.78;;;1.52;86.66
15405;BME280;7801;48.124;11.590;2023-01-27T02:44:01;95415.41;;;1.50;86.95
15405;BME280;7801;48.124;11.590;2023-01-27T02:46:27;95414.13;;;1.35;88.67
15405;BME280;7801;48.124;11.590;2023-01-27T02:48:53;95406.19;;;1.59;88.22
15405;BME280;7801;48.124;11.590;2023-01-27T02:51:18;95410.66;;;1.47;88.76
15405;BME280;7801;48.124;11.590;2023-01-27T02:53:44;95406.81;;;1.09;89.96
15405;BME280;7801;48.124;11.590;2023-01-27T02:56:09;95409.62;;;1.19;90.46
15405;BME280;7801;48.124;11.590;2023-01-27T02:58:35;95404.13;;;1.32;90.64
15405;BME280;7801;48.124;11.590;2023-01-27T03:01:00;95410.88;;;1.17;90.56
15405;BME280;7801;48.124;11.590;2023-01-27T03:03:26;95419.38;;;1.24;90.71
15405;BME280;7801;48.124;11.590;2023-01-27T03:05:51;95407.03;;;1.19;89.75
15405;BME280;7801;48.124;11.590;2023-01-27T03:08:17;95406.25;;;1.07;89.57
15405;BME280;7801;48.124;11.590;2023-01-27T03:10:43;95403.75;;;1.12;89.92
15405;BME280;7801;48.124;11.590;2023-01-27T03:13:09;95400.06;;;1.25;89.89
15405;BME280;7801;48.124;11.590;2023-01-27T03:15:34;95402.34;;;1.21;89.68
15405;BME280;7801;48.124;11.590;2023-01-27T03:18:18;95408.84;;;1.19;89.28
15405;BME280;7801;48.124;11.590;2023-01-27T03:20:45;95402.09;;;0.94;90.16
15405;BME280;7801;48.124;11.590;2023-01-27T03:23:12;95410.84;;;0.88;90.65
15405;BME280;7801;48.124;11.590;2023-01-27T03:25:46;95411.41;;;0.90;90.99
15405;BME280;7801;48.124;11.590;2023-01-27T03:28:12;95409.72;;;0.73;92.01
15405;BME280;7801;48.124;11.590;2023-01-27T03:30:38;95411.66;;;0.65;92.52
15405;BME280;7801;48.124;11.590;2023-01-27T03:33:04;95408.94;;;0.72;92.60
15405;BME280;7801;48.124;11.590;2023-01-27T03:35:32;95409.06;;;0.77;92.48
15405;BME280;7801;48.124;11.590;2023-01-27T03:38:01;95407.94;;;0.61;92.54
15405;BME280;7801;48.124;11.590;2023-01-27T03:40:45;95401.03;;;0.55;93.20
15405;BME280;7801;48.124;11.590;2023-01-27T03:43:29;95388.63;;;0.62;93.39
15405;BME280;7801;48.124;11.590;2023-01-27T03:46:13;95394.88;;;0.73;93.11
15405;BME280;7801;48.124;11.590;2023-01-27T03:48:43;95394.38;;;0.88;92.90
15405;BME280;7801;48.124;11.590;2023-01-27T03:51:09;95398.22;;;0.97;92.42
15405;BME280;7801;48.124;11.590;2023-01-27T03:53:35;95395.53;;;1.20;91.11
15405;BME280;7801;48.124;11.590;2023-01-27T03:56:02;95393.34;;;0.89;90.60
15405;BME280;7801;48.124;11.590;2023-01-27T03:58:29;95391.78;;;0.76;90.80
15405;BME280;7801;48.124;11.590;2023-01-27T04:01:17;95391.78;;;0.76;91.26
15405;BME280;7801;48.124;11.590;2023-01-27T04:03:43;95400.62;;;0.87;91.27
15405;BME280;7801;48.124;11.590;2023-01-27T04:06:30;95400.09;;;0.73;91.62
15405;BME280;7801;48.124;11.590;2023-01-27T04:09:30;95412.34;;;0.73;91.77
15405;BME280;7801;48.124;11.590;2023-01-27T04:11:58;95407.81;;;0.68;92.83
15405;BME280;7801;48.124;11.590;2023-01-27T04:14:29;95401.12;;;0.60;92.71
15405;BME280;7801;48.124;11.590;2023-01-27T04:17:00;95394.66;;;0.51;93.09
15405;BME280;7801;48.124;11.590;2023-01-27T04:19:26;95398.41;;;0.55;92.66
15405;BME280;7801;48.124;11.590;2023-01-27T04:21:52;95402.28;;;0.29;93.33
15405;BME280;7801;48.124;11.590;2023-01-27T04:24:18;95406.34;;;0.37;93.50
15405;BME280;7801;48.124;11.590;2023-01-27T04:26:56;95404.91;;;0.41;93.60
15405;BME280;7801;48.124;11.590;2023-01-27T04:29:24;95406.72;;;0.41;93.78
15405;BME280;7801;48.124;11.590;2023-01-27T04:31:50;95397.81;;;0.42;93.32
15405;BME280;7801;48.124;11.590;2023-01-27T04:34:16;95404.53;;;0.49;92.73
15405;BME280;7801;48.124;11.590;2023-01-27T04:36:42;95406.34;;;0.37;92.88
15405;BME280;7801;48.124;11.590;2023-01-27T04:39:08;95403.72;;;0.49;93.18
15405;BME280;7801;48.124;11.590;2023-01-27T04:41:33;95396.69;;;0.49;92.94
15405;BME280;7801;48.124;11.590;2023-01-27T04:44:00;95406.56;;;0.47;93.07
15405;BME280;7801;48.124;11.590;2023-01-27T04:46:25;95413.94;;;0.50;92.52
15405;BME280;7801;48.124;11.590;2023-01-27T04:48:51;95403.97;;;0.47;91.91
15405;BME280;7801;48.124;11.590;2023-01-27T04:51:16;95402.72;;;0.50;92.10
15405;BME280;7801;48.124;11.590;2023-01-27T04:53:42;95409.38;;;0.69;90.92
15405;BME280;7801;48.124;11.590;2023-01-27T04:56:19;95411.78;;;0.24;91.67
15405;BME280;7801;48.124;11.590;2023-01-27T04:58:45;95408.94;;;0.49;91.75
15405;BME280;7801;48.124;11.590;2023-01-27T05:01:10;95401.94;;;0.61;91.18
15405;BME280;7801;48.124;11.590;2023-01-27T05:03:35;95411.56;;;0.60;91.02
15405;BME280;7801;48.124;11.590;2023-01-27T05:06:01;95408.16;;;0.60;91.03
15405;BME280;7801;48.124;11.590;2023-01-27T05:08:26;95417.25;;;0.34;91.74
15405;BME280;7801;48.124;11.590;2023-01-27T05:10:51;95412.56;;;0.24;92.72
15405;BME280;7801;48.124;11.590;2023-01-27T05:13:16;95407.16;;;0.38;92.40
15405;BME280;7801;48.124;11.590;2023-01-27T05:15:42;95417.91;;;0.18;92.67
15405;BME280;7801;48.124;11.590;2023-01-27T05:18:07;95409.62;;;0.44;91.85
15405;BME280;7801;48.124;11.590;2023-01-27T05:20:32;95403.81;;;0.65;91.52
15405;BME280;7801;48.124;11.590;2023-01-27T05:22:58;95413.81;;;0.68;90.88
15405;BME280;7801;48.124;11.590;2023-01-27T05:25:43;95411.44;;;0.67;90.64
15405;BME280;7801;48.124;11.590;2023-01-27T05:28:09;95415.25;;;0.88;89.85
15405;BME280;7801;48.124;11.590;2023-01-27T05:30:34;95410.75;;;0.72;89.86
15405;BME280;7801;48.124;11.590;2023-01-27T05:32:59;95413.13;;;0.73;90.18
15405;BME280;7801;48.124;11.590;2023-01-27T05:35:25;95416.97;;;0.94;89.96
15405;BME280;7801;48.124;11.590;2023-01-27T05:37:50;95422.84;;;1.01;89.25
15405;BME280;7801;48.124;11.590;2023-01-27T05:40:16;95426.56;;;1.17;88.71
15405;BME280;7801;48.124;11.590;2023-01-27T05:42:41;95429.03;;;1.23;88.17
15405;BME280;7801;48.124;11.590;2023-01-27T05:45:07;95434.63;;;1.15;87.41
15405;BME280;7801;48.124;11.590;2023-01-27T05:47:32;95431.03;;;0.93;87.93
15405;BME280;7801;48.124;11.590;2023-01-27T05:49:58;95437.53;;;0.79;88.73
15405;BME280;7801;48.124;11.590;2023-01-27T05:52:23;95444.78;;;0.88;89.17
15405;BME280;7801;48.124;11.590;2023-01-27T05:54:51;95440.94;;;0.79;89.31
15405;BME280;7801;48.124;11.590;2023-01-27T05:57:16;95442.53;;;0.80;89.90
15405;BME280;7801;48.124;11.590;2023-01-27T05:59:41;95443.66;;;0.73;90.01
15405;BME280;7801;48.124;11.590;2023-01-27T06:02:06;95447.97;;;0.79;90.40
15405;BME280;7801;48.124;11.590;2023-01-27T06:04:32;95449.00;;;0.78;91.25
15405;BME280;7801;48.124;11.590;2023-01-27T06:06:57;95447.28;;;0.83;90.62
15405;BME280;7801;48.124;11.590;2023-01-27T06:09:23;95452.94;;;1.03;90.72
15405;BME280;7801;48.124;11.590;2023-01-27T06:11:48;95457.50;;;0.96;89.53
15405;BME280;7801;48.124;11.590;2023-01-27T06:14:13;95459.59;;;1.23;89.64
15405;BME280;7801;48.124;11.590;2023-01-27T06:16:39;95459.44;;;1.29;89.09
15405;BME280;7801;48.124;11.590;2023-01-27T06:19:04;95451.59;;;1.41;88.85
15405;BME280;7801;48.124;11.590;2023-01-27T06:21:29;95453.09;;;1.65;87.97
15405;BME280;7801;48.124;11.590;2023-01-27T06:23:55;95455.63;;;1.49;87.52
15405;BME280;7801;48.124;11.590;2023-01-27T06:26:22;95460.63;;;1.10;88.55
15405;BME280;7801;48.124;11.590;2023-01-27T06:28:47;95464.63;;;0.89;89.87
15405;BME280;7801;48.124;11.590;2023-01-27T06:31:18;95457.50;;;0.85;89.76
15405;BME280;7801;48.124;11.590;2023-01-27T06:33:44;95458.75;;;0.94;90.50
15405;BME280;7801;48.124;11.590;2023-01-27T06:36:12;95470.34;;;1.26;89.94
15405;BME280;7801;48.124;11.590;2023-01-27T06:38:38;95473.19;;;1.36;89.51
15405;BME280;7801;48.124;11.590;2023-01-27T06:41:04;95473.34;;;1.07;89.98
15405;BME280;7801;48.124;11.590;2023-01-27T06:43:29;95476.91;;;0.89;90.36
15405;BME280;7801;48.124;11.590;2023-01-27T06:45:55;95481.91;;;0.79;91.37
15405;BME280;7801;48.124;11.590;2023-01-27T06:48:23;95492.56;;;0.65;92.39
15405;BME280;7801;48.124;11.590;2023-01-27T06:50:52;95495.41;;;0.52;93.29
15405;BME280;7801;48.124;11.590;2023-01-27T06:53:17;95495.31;;;0.59;92.78
15405;BME280;7801;48.124;11.590;2023-01-27T06:55:42;95501.53;;;0.58;92.71
15405;BME280;7801;48.124;11.590;2023-01-27T06:58:10;95492.81;;;0.76;92.66
15405;BME280;7801;48.124;11.590;2023-01-27T07:00:37;95496.09;;;0.71;92.83
15405;BME280;7801;48.124;11.590;2023-01-27T07:03:04;95490.88;;;0.83;92.95
15405;BME280;7801;48.124;11.590;2023-01-27T07:05:30;95504.84;;;1.00;92.79
15405;BME280;7801;48.124;11.590;2023-01-27T07:07:56;95494.94;;;0.90;91.93
15405;BME280;7801;48.124;11.590;2023-01-27T07:10:21;95492.66;;;1.06;92.95
15405;BME280;7801;48.124;11.590;2023-01-27T07:12:46;95485.22;;;3.33;100.00
15405;BME280;7801;48.124;11.590;2023-01-27T07:15:12;95480.13;;;3.65;99.35
15405;BME280;7801;48.124;11.590;2023-01-27T07:17:38;95479.94;;;4.26;95.90
15405;BME280;7801;48.124;11.590;2023-01-27T07:20:05;95491.09;;;4.43;89.21
15405;BME280;7801;48.124;11.590;2023-01-27T07:22:31;95482.31;;;5.01;89.59
15405;BME280;7801;48.124;11.590;2023-01-27T07:24:56;95485.72;;;4.60;81.87
15405;BME280;7801;48.124;11.590;2023-01-27T07:27:23;95483.09;;;5.02;84.41
15405;BME280;7801;48.124;11.590;2023-01-27T07:29:48;95477.16;;;4.74;83.98
15405;BME280;7801;48.124;11.590;2023-01-27T07:32:13;95467.88;;;4.99;82.64
15405;BME280;7801;48.124;11.590;2023-01-27T07:34:39;95479.75;;;4.69;82.35
15405;BME280;7801;48.124;11.590;2023-01-27T07:37:04;95470.00;;;5.07;80.45
15405;BME280;7801;48.124;11.590;2023-01-27T07:39:30;95474.28;;;5.18;77.88
15405;BME280;7801;48.124;11.590;2023-01-27T07:41:56;95472.44;;;5.18;77.80
15405;BME280;7801;48.124;11.590;2023-01-27T07:44:23;95483.72;;;5.14;77.31
15405;BME280;7801;48.124;11.590;2023-01-27T07:46:48;95489.94;;;5.03;78.28
15405;BME280;7801;48.124;11.590;2023-01-27T07:49:13;95482.69;;;5.20;77.53
15405;BME280;7801;48.124;11.590;2023-01-27T07:51:39;95481.59;;;5.11;76.39
15405;BME280;7801;48.124;11.590;2023-01-27T07:54:04;95484.22;;;5.11;75.26
15405;BME280;7801;48.124;11.590;2023-01-27T07:56:30;95486.00;;;4.63;75.34
15405;BME280;7801;48.124;11.590;2023-01-27T07:58:56;95487.81;;;3.50;75.54
15405;BME280;7801;48.124;11.590;2023-01-27T08:01:22;95492.16;;;3.01;78.24
15405;BME280;7801;48.124;11.590;2023-01-27T08:03:47;95489.56;;;2.51;80.79
15405;BME280;7801;48.124;11.590;2023-01-27T08:06:13;95495.22;;;2.59;81.37
15405;BME280;7801;48.124;11.590;2023-01-27T08:08:38;95480.78;;;2.57;81.77
15405;BME280;7801;48.124;11.590;2023-01-27T08:11:08;95494.31;;;2.20;82.58
15405;BME280;7801;48.124;11.590;2023-01-27T08:13:35;95496.72;;;2.22;82.64
15405;BME280;7801;48.124;11.590;2023-01-27T08:16:03;95496.00;;;1.81;84.92
15405;BME280;7801;48.124;11.590;2023-01-27T08:18:33;95497.34;;;1.84;85.24
15405;BME280;7801;48.124;11.590;2023-01-27T08:21:00;95498.56;;;2.10;84.82
15405;BME280;7801;48.124;11.590;2023-01-27T08:23:27;95500.00;;;2.00;84.28
15405;BME280;7801;48.124;11.590;2023-01-27T08:25:54;95502.44;;;1.90;85.44
15405;BME280;7801;48.124;11.590;2023-01-27T08:28:21;95501.69;;;2.06;85.03
15405;BME280;7801;48.124;11.590;2023-01-27T08:30:47;95510.81;;;2.21;83.93
15405;BME280;7801;48.124;11.590;2023-01-27T08:33:22;95504.47;;;2.17;84.00
15405;BME280;7801;48.124;11.590;2023-01-27T08:35:49;95509.09;;;2.26;84.09
15405;BME280;7801;48.124;11.590;2023-01-27T08:38:16;95509.22;;;2.20;84.30
15405;BME280;7801;48.124;11.590;2023-01-27T08:40:43;95498.31;;;2.56;82.00
15405;BME280;7801;48.124;11.590;2023-01-27T08:43:09;95503.47;;;2.51;82.24
15405;BME280;7801;48.124;11.590;2023-01-27T08:45:35;95512.91;;;2.52;81.71
15405;BME280;7801;48.124;11.590;2023-01-27T08:48:01;95520.50;;;2.37;82.18
15405;BME280;7801;48.124;11.590;2023-01-27T08:50:26;95521.53;;;2.36;82.22
15405;BME280;7801;48.124;11.590;2023-01-27T08:52:53;95528.75;;;2.29;82.60
15405;BME280;7801;48.124;11.590;2023-01-27T08:55:20;95519.41;;;2.33;81.96
15405;BME280;7801;48.124;11.590;2023-01-27T08:57:45;95530.19;;;2.53;81.80
15405;BME280;7801;48.124;11.590;2023-01-27T09:00:11;95525.13;;;2.63;81.94
15405;BME280;7801;48.124;11.590;2023-01-27T09:02:37;95529.16;;;2.71;81.58
15405;BME280;7801;48.124;11.590;2023-01-27T09:05:02;95543.38;;;2.41;82.15
15405;BME280;7801;48.124;11.590;2023-01-27T09:07:28;95530.06;;;2.15;82.29
15405;BME280;7801;48.124;11.590;2023-01-27T09:09:53;95539.03;;;2.19;83.94
15405;BME280;7801;48.124;11.590;2023-01-27T09:12:19;95526.53;;;2.37;83.24
15405;BME280;7801;48.124;11.590;2023-01-27T09:14:44;95527.19;;;2.45;82.92
15405;BME280;7801;48.124;11.590;2023-01-27T09:17:09;95524.47;;;2.23;82.82
15405;BME280;7801;48.124;11.590;2023-01-27T09:19:35;95532.56;;;2.21;83.11
15405;BME280;7801;48.124;11.590;2023-01-27T09:22:01;95528.75;;;2.29;83.14
15405;BME280;7801;48.124;11.590;2023-01-27T09:24:26;95534.53;;;2.31;82.13
15405;BME280;7801;48.124;11.590;2023-01-27T09:26:53;95530.59;;;2.45;82.08
15405;BME280;7801;48.124;11.590;2023-01-27T09:29:18;95533.13;;;2.57;80.62
15405;BME280;7801;48.124;11.590;2023-01-27T09:31:44;95538.00;;;2.48;81.91
15405;BME280;7801;48.124;11.590;2023-01-27T09:34:09;95532.44;;;2.61;81.49
15405;BME280;7801;48.124;11.590;2023-01-27T09:36:40;95540.25;;;2.28;82.07
15405;BME280;7801;48.124;11.590;2023-01-27T09:39:07;95546.34;;;2.17;82.65
15405;BME280;7801;48.124;11.590;2023-01-27T09:41:46;95550.06;;;2.21;83.09
15405;BME280;7801;48.124;11.590;2023-01-27T09:47:27;95553.94;;;1.90;83.99
15405;BME280;7801;48.124;11.590;2023-01-27T09:50:20;95555.75;;;1.89;85.16
15405;BME280;7801;48.124;11.590;2023-01-27T10:06:35;95549.28;;;1.92;83.90
15405;BME280;7801;48.124;11.590;2023-01-27T10:12:35;95560.34;;;1.82;83.43
15405;BME280;7801;48.124;11.590;2023-01-27T10:15:29;95554.16;;;1.88;84.38
15405;BME280;7801;48.124;11.590;2023-01-27T10:20:36;95557.03;;;1.87;84.53
15405;BME280;7801;48.124;11.590;2023-01-27T10:23:24;95554.31;;;1.82;83.91
15405;BME280;7801;48.124;11.590;2023-01-27T10:28:23;95559.50;;;1.65;84.44
15405;BME280;7801;48.124;11.590;2023-01-27T10:33:20;95544.84;;;1.64;85.93
15405;BME280;7801;48.124;11.590;2023-01-27T10:43:38;95557.81;;;1.87;83.89
15405;BME280;7801;48.124;11.590;2023-01-27T10:48:54;95567.75;;;1.85;84.11
15405;BME280;7801;48.124;11.590;2023-01-27T10:51:31;95570.88;;;1.59;84.19
15405;BME280;7801;48.124;11.590;2023-01-27T10:54:20;95560.09;;;1.44;85.33
15405;BME280;7801;48.124;11.590;2023-01-27T10:56:55;95564.53;;;1.43;86.10
15405;BME280;7801;48.124;11.590;2023-01-27T10:59:29;95558.81;;;1.58;86.37
15405;BME280;7801;48.124;11.590;2023-01-27T11:02:14;95560.59;;;1.69;85.77
15405;BME280;7801;48.124;11.590;2023-01-27T11:04:45;95568.44;;;1.69;85.19
15405;BME280;7801;48.124;11.590;2023-01-27T11:07:16;95564.72;;;1.65;85.18
15405;BME280;7801;48.124;11.590;2023-01-27T11:09:48;95563.78;;;1.71;84.95
15405;BME280;7801;48.124;11.590;2023-01-27T11:12:24;95565.81;;;1.69;84.85
15405;BME280;7801;48.124;11.590;2023-01-27T11:14:52;95567.88;;;1.67;85.42
15405;BME280;7801;48.124;11.590;2023-01-27T11:17:30;95565.81;;;1.69;85.24
15405;BME280;7801;48.124;11.590;2023-01-27T11:20:19;95567.19;;;1.71;84.87
15405;BME280;7801;48.124;11.590;2023-01-27T11:22:59;95552.81;;;1.46;84.63
15405;BME280;7801;48.124;11.590;2023-01-27T11:25:35;95558.13;;;1.51;83.99
15405;BME280;7801;48.124;11.590;2023-01-27T11:33:41;95553.03;;;1.56;83.65
15405;BME280;7801;48.124;11.590;2023-01-27T11:36:11;95552.16;;;1.38;84.88
15405;BME280;7801;48.124;11.590;2023-01-27T11:38:36;95549.31;;;1.28;84.74
15405;BME280;7801;48.124;11.590;2023-01-27T11:41:01;95553.44;;;1.24;85.01
15405;BME280;7801;48.124;11.590;2023-01-27T11:43:27;95555.22;;;1.12;85.21
15405;BME280;7801;48.124;11.590;2023-01-27T11:46:15;95545.94;;;1.16;85.68
15405;BME280;7801;48.124;11.590;2023-01-27T11:48:44;95537.94;;;1.34;84.74
15405;BME280;7801;48.124;11.590;2023-01-27T11:51:14;95540.28;;;1.59;84.43
15405;BME280;7801;48.124;11.590;2023-01-27T11:53:42;95541.25;;;1.82;84.41
15405;BME280;7801;48.124;11.590;2023-01-27T11:56:15;95541.94;;;1.77;83.52
15405;BME280;7801;48.124;11.590;2023-01-27T11:59:20;95539.78;;;1.74;84.10
15405;BME280;7801;48.124;11.590;2023-01-27T12:01:52;95546.62;;;2.03;81.62
15405;BME280;7801;48.124;11.590;2023-01-27T12:07:16;95544.88;;;1.81;80.79
15405;BME280;7801;48.124;11.590;2023-01-27T12:09:44;95541.41;;;2.03;79.47
15405;BME280;7801;48.124;11.590;2023-01-27T12:14:37;95542.13;;;1.87;79.36
15405;BME280;7801;48.124;11.590;2023-01-27T12:17:04;95538.47;;;1.88;79.72
15405;BME280;7801;48.124;11.590;2023-01-27T12:19:39;95536.16;;;1.75;79.86
15405;BME280;7801;48.124;11.590;2023-01-27T12:22:08;95538.97;;;1.85;79.99
15405;BME280;7801;48.124;11.590;2023-01-27T12:24:40;95536.25;;;1.80;79.84
15405;BME280;7801;48.124;11.590;2023-01-27T12:27:22;95538.44;;;1.71;79.98
15405;BME280;7801;48.124;11.590;2023-01-27T12:29:54;95528.69;;;1.95;80.42
15405;BME280;7801;48.124;11.590;2023-01-27T12:32:28;95533.75;;;1.85;80.01
15405;BME280;7801;48.124;11.590;2023-01-27T12:34:58;95528.63;;;1.79;80.14
15405;BME280;7801;48.124;11.590;2023-01-27T12:37:30;95531.94;;;1.74;79.66
15405;BME280;7801;48.124;11.590;2023-01-27T12:40:00;95531.19;;;1.90;78.92
15405;BME280;7801;48.124;11.590;2023-01-27T12:42:46;95525.41;;;1.88;79.39
15405;BME280;7801;48.124;11.590;2023-01-27T12:45:16;95525.47;;;2.05;78.87
15405;BME280;7801;48.124;11.590;2023-01-27T12:47:58;95524.44;;;2.06;78.67
15405;BME280;7801;48.124;11.590;2023-01-27T12:50:28;95529.69;;;2.23;78.45
15405;BME280;7801;48.124;11.590;2023-01-27T12:53:02;95530.50;;;2.23;77.53
15405;BME280;7801;48.124;11.590;2023-01-27T12:55:34;95524.56;;;1.99;78.50
15405;BME280;7801;48.124;11.590;2023-01-27T12:58:01;95530.97;;;2.20;79.16
15405;BME280;7801;48.124;11.590;2023-01-27T13:00:27;95522.41;;;2.25;78.63
15405;BME280;7801;48.124;11.590;2023-01-27T13:03:25;95521.09;;;2.11;78.29
15405;BME280;7801;48.124;11.590;2023-01-27T13:05:53;95519.47;;;1.93;78.66
15405;BME280;7801;48.124;11.590;2023-01-27T13:08:20;95523.47;;;2.12;78.39
15405;BME280;7801;48.124;11.590;2023-01-27T13:10:54;95524.34;;;2.46;78.02
15405;BME280;7801;48.124;11.590;2023-01-27T13:13:26;95513.59;;;2.31;77.96
15405;BME280;7801;48.124;11.590;2023-01-27T13:16:24;95514.34;;;2.43;78.61
15405;BME280;7801;48.124;11.590;2023-01-27T13:18:55;95515.59;;;2.74;77.82
15405;BME280;7801;48.124;11.590;2023-01-27T13:21:24;95511.16;;;2.58;78.13
15405;BME280;7801;48.124;11.590;2023-01-27T13:23:52;95514.94;;;3.00;77.66
15405;BME280;7801;48.124;11.590;2023-01-27T13:26:23;95517.13;;;2.87;76.87
15405;BME280;7801;48.124;11.590;2023-01-27T13:34:25;95509.66;;;2.28;79.19
15405;BME280;7801;48.124;11.590;2023-01-27T13:37:06;95512.91;;;2.35;79.59
15405;BME280;7801;48.124;11.590;2023-01-27T13:39:46;95515.84;;;2.39;79.70
15405;BME280;7801;48.124;11.590;2023-01-27T13:42:47;95516.50;;;2.01;80.48
15405;BME280;7801;48.124;11.590;2023-01-27T13:50:22;95520.72;;;1.90;81.58
15405;BME280;7801;48.124;11.590;2023-01-27T13:52:50;95520.81;;;2.07;81.41
15405;BME280;7801;48.124;11.590;2023-01-27T13:57:59;95525.88;;;2.14;80.90
15405;BME280;7801;48.124;11.590;2023-01-27T14:00:37;95531.56;;;2.11;81.03
15405;BME280;7801;48.124;11.590;2023-01-27T14:12:06;95532.66;;;2.43;78.27
15405;BME280;7801;48.124;11.590;2023-01-27T14:14:59;95528.22;;;2.77;77.41
15405;BME280;7801;48.124;11.590;2023-01-27T14:17:52;95531.62;;;2.61;77.09
15405;BME280;7801;48.124;11.590;2023-01-27T14:23:40;95530.69;;;2.67;76.42
15405;BME280;7801;48.124;11.590;2023-01-27T14:26:47;95528.13;;;2.72;76.27
15405;BME280;7801;48.124;11.590;2023-01-27T14:35:37;95524.19;;;2.86;75.26
15405;BME280;7801;48.124;11.590;2023-01-27T14:38:38;95529.88;;;2.50;76.51
15405;BME280;7801;48.124;11.590;2023-01-27T14:47:08;95540.38;;;2.66;78.19
15405;BME280;7801;48.124;11.590;2023-01-27T14:50:02;95546.66;;;2.65;77.64
15405;BME280;7801;48.124;11.590;2023-01-27T14:52:51;95547.91;;;2.80;76.95
15405;BME280;7801;48.124;11.590;2023-01-27T14:55:30;95544.34;;;2.69;77.32
15405;BME280;7801;48.124;11.590;2023-01-27T15:04:05;95552.84;;;2.31;79.67
15405;BME280;7801;48.124;11.590;2023-01-27T15:07:17;95556.22;;;2.60;78.97